メインページ
METAR-TAF:

METAR-TAF

空港 :

旭川空港

旭川, 日本

緯度: 43-40N, 経度: 142-27E, 海抜: 208m

現時点の気象観測

当レポートは46分前の11:00(UTC)に作成
北西の風 6kt
気温 9°C
湿度 61%
気圧 1016 hPa
視程10km以上
高度3000ftの雲はほとんどない

METAR: RJEC 201100Z 32006KT 9999 FEW030 09/02 Q1016

時間: 20:46 (11:46 UTC)

予報

当レポートは39分前の11:07(UTC)に作成
予報は20日の 12時(UTC)から 21日の 18時(UTC)まで有効
北/北西の風 6kt
視程10km以上
高度3000ftの雲はほとんどない
20日の 18時(UTC)から 20日の 20時(UTC)まで徐々に
の風 3kt
21日の 00時(UTC)から 21日の 03時(UTC)まで徐々に
北西の風 10kt
21日の 12時(UTC)から 21日の 15時(UTC)まで徐々に
の風 7kt

TAF: RJEC 201107Z 2012/2118 33006KT 9999 FEW030 BECMG 2018/2020 17003KT BECMG 2100/2103 32010KT BECMG 2112/2115 17007KT

4,000以上の空港の気象観測と天気予報(METAR報とTAF報)

利用可能な観測所は地図上に黄色い丸と赤い丸で示す。

丸の上にカーソルを重ねると観測所名を参照できる。

次にクリックすると気象観測と天気予報を参照できる。

マップの切り替え:黒色「×」印の緑ボタンをクリックして拡大、「-」印の緑ボタンをクリックして縮小、緑色の三角印をクリックして隣りの地図に切り替え


METAR-TAF: